Royse City's Hourly Summary for Sunday, March 19, 2017
Hour Temp
(f)
RH
(%)
Solar Rad.
(MJ/m2)
Rainfall
(in)
Wind
(mph)
3/19/2017 12:00 AM 64 89 0 0 0.72
3/19/2017 1:00 AM 64 89 0 0 1.25
3/19/2017 2:00 AM 63 90 0 0 0.8
3/19/2017 3:00 AM 62 92 0 0 0.05
3/19/2017 4:00 AM 61 96 0 0 0.06
3/19/2017 5:00 AM 62 94 0 0 0.18
3/19/2017 6:00 AM 62 92 0 0 0.96
3/19/2017 7:00 AM 62 93 0 0 0.97
3/19/2017 8:00 AM 62 95 0.03 0 0.64
3/19/2017 9:00 AM 63 94 0.3 0 1.49
3/19/2017 10:00 AM 67 80 1.09 0 2.42
3/19/2017 11:00 AM 70 76 1.34 0 3.42
3/19/2017 12:00 PM 71 68 1.63 0 3.83
3/19/2017 1:00 PM 73 61 2.45 0 4.13
3/19/2017 2:00 PM 76 58 2.99 0 4.71
3/19/2017 3:00 PM 78 55 2.81 0 4.92
3/19/2017 4:00 PM 80 51 2.39 0 4.58
3/19/2017 5:00 PM 80 48 1.91 0 4.45
3/19/2017 6:00 PM 80 48 1.26 0 4.33
3/19/2017 7:00 PM 79 50 0.54 0 4.1
3/19/2017 8:00 PM 75 55 0.05 0 2.57
3/19/2017 9:00 PM 72 65 0 0 1.85
3/19/2017 10:00 PM 70 69 0 0 2.41
3/19/2017 11:00 PM 70 69 0 0 2.43
Data Summary 69 74 18.79 0.00 2.39